Time;durP1;ratioP1;P1;durP2;ratioP2;P2;SDS_P1;SDS_P2;PMS_P1;PMS_P2;Temp;Humidity;BMP_temperature;BMP_pressure;BME280_temperature;BME280_humidity;BME280_pressure;Samples;Min_cycle;Max_cycle;Signal;HPM_P1;HPM_P2
2021/04/27 00:00:00;;;;;;;;;;;384.60;1177.60;;;;;;5070157;28;20022;-67
2021/04/27 00:02:26;;;;;;;;;;;384.70;1177.60;;;;;;5072721;28;19908;-66
2021/04/27 00:04:52;;;;;;;;;;;384.60;1203.20;;;;;;5071645;28;19908;-66
2021/04/27 00:07:17;;;;;;;;;;;384.70;1177.60;;;;;;5073515;28;20362;-68
2021/04/27 00:09:43;;;;;;;;;;;384.70;1177.60;;;;;;5073307;28;19916;-69
2021/04/27 00:12:09;;;;;;;;;;;384.70;1152.00;;;;;;5053824;28;20357;-72
2021/04/27 00:14:35;;;;;;;;;;;384.70;1152.00;;;;;;5055009;28;19955;-70
2021/04/27 00:17:01;;;;;;;;;;;384.70;1152.00;;;;;;5054709;28;19904;-70
2021/04/27 00:19:26;;;;;;;;;;;384.60;1177.60;;;;;;5054856;28;20353;-69
2021/04/27 00:21:52;;;;;;;;;;;384.50;1177.60;;;;;;5054405;28;20395;-71
2021/04/27 00:24:18;;;;;;;;;;;384.70;1152.00;;;;;;5054545;28;20006;-69
2021/04/27 00:26:43;;;;;;;;;;;384.50;1177.60;;;;;;5054427;28;19955;-70
2021/04/27 00:29:09;;;;;;;;;;;384.60;1203.20;;;;;;5054414;28;19905;-70
2021/04/27 00:31:34;;;;;;;;;;;384.50;1177.60;;;;;;5054696;28;20080;-69
2021/04/27 00:34:00;;;;;;;;;;;384.60;1203.20;;;;;;5054122;28;19952;-71
2021/04/27 00:36:26;;;;;;;;;;;384.50;1203.20;;;;;;5054396;28;19909;-67
2021/04/27 00:38:52;;;;;;;;;;;;;;;;;;5054268;28;20003;-70
2021/04/27 00:41:18;;;;;;;;;;;384.60;1203.20;;;;;;5054001;28;20000;-71
2021/04/27 00:43:44;;;;;;;;;;;384.40;1228.80;;;;;;5054282;28;19999;-69
2021/04/27 00:46:09;;;;;;;;;;;384.30;1228.80;;;;;;5054111;28;19988;-70
2021/04/27 00:48:35;;;;;;;;;;;384.30;1254.40;;;;;;5054120;28;19908;-71
2021/04/27 00:51:01;;;;;;;;;;;384.40;1228.80;;;;;;5068357;28;19905;-69
2021/04/27 00:53:27;;;;;;;;;;;384.40;1228.80;;;;;;5074150;28;19908;-67
2021/04/27 00:55:53;;;;;;;;;;;384.50;1228.80;;;;;;5074080;28;19905;-65
2021/04/27 00:58:20;;;;;;;;;;;384.40;1228.80;;;;;;5073972;28;19904;-68
2021/04/27 01:00:46;;;;;;;;;;;384.40;1228.80;;;;;;5073998;28;19923;-64
2021/04/27 01:03:11;;;;;;;;;;;384.40;1254.40;;;;;;5074163;28;19905;-68
2021/04/27 01:05:38;;;;;;;;;;;384.30;1254.40;;;;;;5073607;28;20263;-70
2021/04/27 01:08:07;;;;;;;;;;;384.20;1280.00;;;;;;5073550;28;19915;-68
2021/04/27 01:10:45;;;;;;;;;;;384.20;1280.00;;;;;;5073749;28;19949;-69
2021/04/27 01:13:26;;;;;;;;;;;384.30;1305.60;;;;;;5071352;28;19908;-65
2021/04/27 01:15:51;;;;;;;;;;;384.30;1280.00;;;;;;5073715;28;19910;-68
2021/04/27 01:18:18;;;;;;;;;;;384.20;1305.60;;;;;;5073555;28;19994;-68
2021/04/27 01:20:46;;;;;;;;;;;384.20;1305.60;;;;;;5073647;28;20756;-71
2021/04/27 01:23:11;;;;;;;;;;;384.20;1305.60;;;;;;5072745;28;19946;-70
2021/04/27 01:25:55;;;;;;;;;;;384.10;1331.20;;;;;;5073478;28;19951;-69
2021/04/27 01:28:22;;;;;;;;;;;384.10;1331.20;;;;;;5073304;28;19954;-70
2021/04/27 01:30:48;;;;;;;;;;;359.30;1356.80;;;;;;5073372;28;19904;-70
2021/04/27 01:33:15;;;;;;;;;;;384.00;1382.40;;;;;;5073305;28;19912;-68
2021/04/27 01:35:41;;;;;;;;;;;384.00;1382.40;;;;;;5073071;28;19908;-68
2021/04/27 01:38:07;;;;;;;;;;;384.00;1382.40;;;;;;5073321;28;19909;-68
2021/04/27 01:40:33;;;;;;;;;;;384.00;1382.40;;;;;;5058994;28;20278;-67
2021/04/27 01:43:00;;;;;;;;;;;384.00;1408.00;;;;;;5066029;28;19911;-67
2021/04/27 01:45:27;;;;;;;;;;;384.00;1382.40;;;;;;5055026;28;19908;-68
2021/04/27 01:47:56;;;;;;;;;;;384.00;1382.40;;;;;;5070377;28;19906;-68
2021/04/27 01:50:22;;;;;;;;;;;384.00;1382.40;;;;;;5062057;28;19908;-69
2021/04/27 01:52:49;;;;;;;;;;;359.30;1408.00;;;;;;5072840;28;19908;-67
2021/04/27 01:55:15;;;;;;;;;;;384.00;1408.00;;;;;;5073113;28;19911;-69
2021/04/27 01:57:41;;;;;;;;;;;384.00;1408.00;;;;;;5072853;28;19905;-70
2021/04/27 02:00:07;;;;;;;;;;;384.00;1408.00;;;;;;5072683;28;20366;-70
2021/04/27 02:02:33;;;;;;;;;;;359.30;1433.60;;;;;;5072706;28;19912;-71
2021/04/27 02:04:58;;;;;;;;;;;359.20;1433.60;;;;;;5072571;28;19916;-69
2021/04/27 02:07:24;;;;;;;;;;;359.10;1433.60;;;;;;5072785;28;19912;-67
2021/04/27 02:09:49;;;;;;;;;;;359.10;1433.60;;;;;;5072619;28;19904;-68
2021/04/27 02:12:15;;;;;;;;;;;359.20;1433.60;;;;;;5070654;28;19908;-68
2021/04/27 02:14:41;;;;;;;;;;;359.20;1408.00;;;;;;5072535;28;20414;-69
2021/04/27 02:17:07;;;;;;;;;;;359.30;1408.00;;;;;;5072874;28;20324;-67
2021/04/27 02:19:33;;;;;;;;;;;384.00;1382.40;;;;;;5072894;28;19908;-68
2021/04/27 02:22:04;;;;;;;;;;;359.30;1408.00;;;;;;5072328;28;19920;-68
2021/04/27 02:24:30;;;;;;;;;;;359.20;1433.60;;;;;;5072634;28;19908;-68
2021/04/27 02:26:56;;;;;;;;;;;359.20;1459.20;;;;;;5072395;28;20007;-68
2021/04/27 02:29:22;;;;;;;;;;;359.20;1459.20;;;;;;5072488;28;19962;-68
2021/04/27 02:31:48;;;;;;;;;;;359.20;1459.20;;;;;;5072330;28;19904;-68
2021/04/27 02:34:15;;;;;;;;;;;359.30;1433.60;;;;;;5072045;28;19919;-69
2021/04/27 02:36:41;;;;;;;;;;;359.30;1433.60;;;;;;5054493;28;20313;-68
2021/04/27 02:39:08;;;;;;;;;;;384.00;1433.60;;;;;;5072233;28;19904;-67
2021/04/27 02:41:33;;;;;;;;;;;359.30;1433.60;;;;;;5069272;28;19916;-68
2021/04/27 02:44:01;;;;;;;;;;;384.00;1433.60;;;;;;5068599;28;19920;-69
2021/04/27 02:46:26;;;;;;;;;;;384.00;1433.60;;;;;;5072402;28;19962;-68
2021/04/27 02:48:52;;;;;;;;;;;384.00;1459.20;;;;;;5061524;28;19909;-68
2021/04/27 02:51:18;;;;;;;;;;;384.00;1484.80;;;;;;5069067;28;19911;-67
2021/04/27 02:53:43;;;;;;;;;;;384.00;1484.80;;;;;;5072282;28;20396;-67
2021/04/27 02:56:09;;;;;;;;;;;384.00;1536.00;;;;;;5072053;28;19909;-69
2021/04/27 02:58:34;;;;;;;;;;;384.00;1536.00;;;;;;5072118;28;19908;-67
2021/04/27 03:01:00;;;;;;;;;;;384.00;1561.60;;;;;;5072135;28;19912;-68
2021/04/27 03:03:25;;;;;;;;;;;359.20;1612.80;;;;;;5066855;28;19995;-65
2021/04/27 03:05:51;;;;;;;;;;;359.20;1612.80;;;;;;5051658;28;19916;-65
2021/04/27 03:08:17;;;;;;;;;;;359.20;1587.20;;;;;;5051943;28;19912;-66
2021/04/27 03:10:43;;;;;;;;;;;359.20;1638.40;;;;;;5052050;28;19912;-66
2021/04/27 03:13:08;;;;;;;;;;;359.10;1638.40;;;;;;5051998;28;20398;-66
2021/04/27 03:15:34;;;;;;;;;;;359.10;1638.40;;;;;;5051931;28;19913;-67
2021/04/27 03:17:59;;;;;;;;;;;359.00;1638.40;;;;;;5051846;28;19912;-68
2021/04/27 03:20:25;;;;;;;;;;;359.20;1664.00;;;;;;5051677;28;20402;-64
2021/04/27 03:22:51;;;;;;;;;;;359.10;1689.60;;;;;;5051911;28;19959;-65
2021/04/27 03:25:17;;;;;;;;;;;359.10;1740.80;;;;;;5051775;28;19915;-67
2021/04/27 03:27:42;;;;;;;;;;;359.00;1715.20;;;;;;5051796;28;19927;-65
2021/04/27 03:30:09;;;;;;;;;;;359.00;1766.40;;;;;;5051523;28;19997;-66
2021/04/27 03:32:34;;;;;;;;;;;358.80;1766.40;;;;;;5051971;28;19936;-67
2021/04/27 03:35:00;;;;;;;;;;;359.00;1715.20;;;;;;5051799;28;20258;-68
2021/04/27 03:37:25;;;;;;;;;;;358.90;1715.20;;;;;;5051535;28;19920;-69
2021/04/27 03:39:51;;;;;;;;;;;358.90;1689.60;;;;;;5051799;28;19912;-67
2021/04/27 03:42:17;;;;;;;;;;;358.90;1715.20;;;;;;5051295;28;20393;-67
2021/04/27 03:44:42;;;;;;;;;;;359.00;1715.20;;;;;;5051526;28;19905;-68
2021/04/27 03:47:08;;;;;;;;;;;;;;;;;;5054055;28;19991;-68
2021/04/27 03:49:34;;;;;;;;;;;358.40;1817.60;;;;;;5057486;28;19911;-66
2021/04/27 03:52:00;;;;;;;;;;;358.50;1792.00;;;;;;5075380;28;20254;-68
2021/04/27 03:54:26;;;;;;;;;;;358.50;1792.00;;;;;;5075472;28;20372;-67
2021/04/27 03:56:52;;;;;;;;;;;358.40;1817.60;;;;;;5075223;28;19912;-67
2021/04/27 03:59:18;;;;;;;;;;;333.70;1894.40;;;;;;5075143;28;19995;-66
2021/04/27 04:01:43;;;;;;;;;;;358.50;1817.60;;;;;;5074890;28;20393;-67
2021/04/27 04:04:09;;;;;;;;;;;358.70;1843.20;;;;;;5074889;28;19912;-68
2021/04/27 04:06:34;;;;;;;;;;;358.70;1894.40;;;;;;5074684;28;19920;-67
2021/04/27 04:09:01;;;;;;;;;;;358.70;1843.20;;;;;;5075200;28;19904;-68
2021/04/27 04:11:27;;;;;;;;;;;358.80;1817.60;;;;;;5073658;28;20273;-67
2021/04/27 04:13:52;;;;;;;;;;;358.80;1868.80;;;;;;5074749;28;19910;-66
2021/04/27 04:16:18;;;;;;;;;;;358.80;1868.80;;;;;;5075036;28;19939;-67
2021/04/27 04:18:43;;;;;;;;;;;358.80;1868.80;;;;;;5074895;28;19905;-67
2021/04/27 04:21:09;;;;;;;;;;;358.80;1817.60;;;;;;5074907;28;19943;-67
2021/04/27 04:23:34;;;;;;;;;;;358.90;1868.80;;;;;;5074859;28;20347;-68
2021/04/27 04:26:00;;;;;;;;;;;358.80;1868.80;;;;;;5074655;28;20380;-67
2021/04/27 04:28:26;;;;;;;;;;;358.90;1817.60;;;;;;5074606;28;19912;-68
2021/04/27 04:30:51;;;;;;;;;;;358.80;1817.60;;;;;;5074715;28;19908;-69
2021/04/27 04:33:17;;;;;;;;;;;358.80;1817.60;;;;;;5074882;28;19909;-69
2021/04/27 04:35:43;;;;;;;;;;;358.70;1843.20;;;;;;5074396;28;19931;-66
2021/04/27 04:38:10;;;;;;;;;;;358.70;1843.20;;;;;;5074579;28;19939;-68
2021/04/27 04:40:35;;;;;;;;;;;358.80;1843.20;;;;;;5074199;28;19963;-67
2021/04/27 04:43:01;;;;;;;;;;;358.60;1843.20;;;;;;5067992;28;19947;-67
2021/04/27 04:45:27;;;;;;;;;;;358.70;1817.60;;;;;;5055706;28;19911;-68
2021/04/27 04:47:52;;;;;;;;;;;358.70;1766.40;;;;;;5040079;28;19912;-66
2021/04/27 04:50:18;;;;;;;;;;;358.70;1766.40;;;;;;5062683;28;20006;-68
2021/04/27 04:52:44;;;;;;;;;;;358.50;1792.00;;;;;;5074054;28;20204;-68
2021/04/27 04:55:10;;;;;;;;;;;358.70;1817.60;;;;;;5074091;28;19958;-68
2021/04/27 04:57:36;;;;;;;;;;;358.80;1817.60;;;;;;5073949;28;19908;-67
2021/04/27 05:00:04;;;;;;;;;;;358.80;1817.60;;;;;;5073670;28;20255;-67
2021/04/27 05:02:29;;;;;;;;;;;358.90;1843.20;;;;;;5073904;28;19913;-68
2021/04/27 05:04:55;;;;;;;;;;;359.00;1766.40;;;;;;5073547;28;19939;-68
2021/04/27 05:07:23;;;;;;;;;;;358.90;1817.60;;;;;;5073736;28;19920;-68
2021/04/27 05:09:49;;;;;;;;;;;358.90;1792.00;;;;;;5073979;28;20345;-68
2021/04/27 05:12:14;;;;;;;;;;;358.70;1792.00;;;;;;5072677;28;19939;-67
2021/04/27 05:14:41;;;;;;;;;;;358.60;1792.00;;;;;;5073654;28;20286;-68
2021/04/27 05:17:07;;;;;;;;;;;358.60;1792.00;;;;;;5055560;28;20036;-69
2021/04/27 05:19:33;;;;;;;;;;;358.70;1817.60;;;;;;5073690;28;19998;-66
2021/04/27 05:21:59;;;;;;;;;;;358.80;1817.60;;;;;;5073140;28;20358;-68
2021/04/27 05:24:25;;;;;;;;;;;358.90;1843.20;;;;;;5073557;28;20163;-68
2021/04/27 05:26:51;;;;;;;;;;;358.80;1843.20;;;;;;5073498;28;20006;-67
2021/04/27 05:29:16;;;;;;;;;;;358.80;1843.20;;;;;;5073238;28;19904;-68
2021/04/27 05:31:42;;;;;;;;;;;358.80;1843.20;;;;;;5073503;28;19954;-66
2021/04/27 05:34:08;;;;;;;;;;;358.80;1843.20;;;;;;5073339;28;19999;-66
2021/04/27 05:36:33;;;;;;;;;;;358.90;1817.60;;;;;;5073371;28;19908;-66
2021/04/27 05:38:59;;;;;;;;;;;359.00;1843.20;;;;;;5073050;28;19904;-66
2021/04/27 05:41:25;;;;;;;;;;;359.00;1766.40;;;;;;5071599;28;19933;-64
2021/04/27 05:43:50;;;;;;;;;;;;;;;;;;5068328;28;19904;-65
2021/04/27 05:46:16;;;;;;;;;;;359.20;1740.80;;;;;;5072891;28;19951;-67
2021/04/27 05:48:42;;;;;;;;;;;359.20;1766.40;;;;;;5063796;28;19940;-65
2021/04/27 05:51:07;;;;;;;;;;;359.20;1792.00;;;;;;5068109;28;19908;-65
2021/04/27 05:53:33;;;;;;;;;;;359.20;1766.40;;;;;;5072866;28;20338;-67
2021/04/27 05:55:58;;;;;;;;;;;359.20;1740.80;;;;;;5072925;28;19905;-66
2021/04/27 05:58:24;;;;;;;;;;;359.20;1715.20;;;;;;5072714;28;19916;-68
2021/04/27 06:00:49;;;;;;;;;;;359.20;1766.40;;;;;;5072606;28;19916;-68
2021/04/27 06:03:15;;;;;;;;;;;359.20;1715.20;;;;;;5072691;28;19908;-66
2021/04/27 06:05:41;;;;;;;;;;;;;;;;;;5072441;28;19913;-67
2021/04/27 06:08:07;;;;;;;;;;;;;;;;;;5072508;28;20397;-67
2021/04/27 06:10:32;;;;;;;;;;;358.50;1843.20;;;;;;5072241;28;19970;-67
2021/04/27 06:12:58;;;;;;;;;;;;;;;;;;5071538;28;19962;-66
2021/04/27 06:15:24;;;;;;;;;;;;;;;;;;5054497;28;19904;-67
2021/04/27 06:17:50;;;;;;;;;;;359.10;1817.60;;;;;;5072501;28;20263;-67
2021/04/27 06:20:16;;;;;;;;;;;359.20;1817.60;;;;;;5072187;28;19908;-66
2021/04/27 06:22:41;;;;;;;;;;;359.30;1792.00;;;;;;5072510;28;19977;-67
2021/04/27 06:25:08;;;;;;;;;;;384.10;1740.80;;;;;;5072254;28;19904;-68
2021/04/27 06:27:33;;;;;;;;;;;384.00;1715.20;;;;;;5072760;28;20275;-68
2021/04/27 06:30:00;;;;;;;;;;;384.00;1689.60;;;;;;5072409;28;19908;-68
2021/04/27 06:32:26;;;;;;;;;;;384.10;1715.20;;;;;;5072565;28;19912;-66
2021/04/27 06:34:52;;;;;;;;;;;384.30;1715.20;;;;;;5072197;28;19909;-66
2021/04/27 06:37:18;;;;;;;;;;;384.40;1689.60;;;;;;5072259;28;19912;-69
2021/04/27 06:39:43;;;;;;;;;;;384.60;1715.20;;;;;;5072274;28;19905;-68
2021/04/27 06:42:09;;;;;;;;;;;384.60;1689.60;;;;;;5065911;28;19916;-67
2021/04/27 06:44:35;;;;;;;;;;;384.10;1740.80;;;;;;5072216;28;19923;-68
2021/04/27 06:47:00;;;;;;;;;;;384.30;1689.60;;;;;;5058858;28;19908;-69
2021/04/27 06:49:26;;;;;;;;;;;384.20;1689.60;;;;;;5057404;28;19955;-66
2021/04/27 06:51:52;;;;;;;;;;;384.60;1689.60;;;;;;5072010;28;19948;-66
2021/04/27 06:54:18;;;;;;;;;;;384.70;1664.00;;;;;;5072314;28;19910;-65
2021/04/27 06:56:44;;;;;;;;;;;384.70;1638.40;;;;;;5071947;28;19908;-68
2021/04/27 06:59:12;;;;;;;;;;;384.30;1689.60;;;;;;5072547;28;20351;-69
2021/04/27 07:01:38;;;;;;;;;;;384.60;1664.00;;;;;;5068185;28;19917;-67
2021/04/27 07:04:03;;;;;;;;;;;384.70;1664.00;;;;;;5052017;28;20143;-68
2021/04/27 07:06:29;;;;;;;;;;;384.70;1638.40;;;;;;5067105;28;19979;-68
2021/04/27 07:08:54;;;;;;;;;;;384.70;1638.40;;;;;;5064132;28;19908;-69
2021/04/27 07:11:20;;;;;;;;;;;409.60;1689.60;;;;;;5051639;28;19905;-69
2021/04/27 07:13:45;;;;;;;;;;;409.70;1587.20;;;;;;5051346;28;19908;-69
2021/04/27 07:16:11;;;;;;;;;;;409.70;1612.80;;;;;;5052011;28;19909;-69
2021/04/27 07:18:36;;;;;;;;;;;409.70;1612.80;;;;;;5048120;28;20347;-67
2021/04/27 07:21:02;;;;;;;;;;;409.90;1587.20;;;;;;5042440;28;19966;-68
2021/04/27 07:23:29;;;;;;;;;;;409.70;1638.40;;;;;;5055732;28;20314;-69
2021/04/27 07:25:54;;;;;;;;;;;409.70;1587.20;;;;;;5055527;28;19905;-68
2021/04/27 07:28:20;;;;;;;;;;;409.70;1587.20;;;;;;5055685;28;19905;-66
2021/04/27 07:30:46;;;;;;;;;;;384.60;1587.20;;;;;;5055086;28;19920;-65
2021/04/27 07:33:11;;;;;;;;;;;409.70;1612.80;;;;;;5055855;28;19904;-68
2021/04/27 07:35:37;;;;;;;;;;;409.90;1587.20;;;;;;5055214;28;19905;-68
2021/04/27 07:38:03;;;;;;;;;;;410.20;1612.80;;;;;;5055428;28;19919;-66
2021/04/27 07:40:30;;;;;;;;;;;410.50;1587.20;;;;;;5055023;28;19908;-68
2021/04/27 07:42:55;;;;;;;;;;;435.20;1561.60;;;;;;5055022;28;19909;-68
2021/04/27 07:45:21;;;;;;;;;;;435.20;1561.60;;;;;;5054875;28;19956;-68
2021/04/27 07:47:46;;;;;;;;;;;435.60;1536.00;;;;;;5055167;28;19927;-67
2021/04/27 07:50:12;;;;;;;;;;;435.60;1561.60;;;;;;5062838;28;19908;-69
2021/04/27 07:52:39;;;;;;;;;;;;;;;;;;5075201;28;19983;-70
2021/04/27 07:55:05;;;;;;;;;;;;;;;;;;5074793;28;19904;-68
2021/04/27 07:57:31;;;;;;;;;;;;;;;;;;5075088;28;19998;-69
2021/04/27 07:59:57;;;;;;;;;;;;;;;;;;5056875;28;20448;-69
2021/04/27 08:02:23;;;;;;;;;;;;;;;;;;5075020;28;20014;-69
2021/04/27 08:04:49;;;;;;;;;;;;;;;;;;5074767;28;19904;-65
2021/04/27 08:07:15;;;;;;;;;;;;;;;;;;5074891;28;19920;-68
2021/04/27 08:09:41;;;;;;;;;;;;;;;;;;5074974;28;19908;-68
2021/04/27 08:12:07;;;;;;;;;;;;;;;;;;5074145;28;19904;-65
2021/04/27 08:14:33;;;;;;;;;;;;;;;;;;5073850;28;19912;-66
2021/04/27 08:16:59;;;;;;;;;;;;;;;;;;5071440;28;19908;-65
2021/04/27 08:19:24;;;;;;;;;;;;;;;;;;5053830;28;19904;-65
2021/04/27 08:21:50;;;;;;;;;;;;;;;;;;5069969;28;19916;-69
2021/04/27 08:24:16;;;;;;;;;;;;;;;;;;5054106;28;20361;-68
2021/04/27 08:26:42;;;;;;;;;;;;;;;;;;5072615;28;19961;-66
2021/04/27 08:29:08;;;;;;;;;;;486.40;1331.20;;;;;;5072558;28;19920;-68
2021/04/27 08:31:34;;;;;;;;;;;486.40;1356.80;;;;;;5072796;28;20392;-65
2021/04/27 08:34:00;;;;;;;;;;;486.50;1356.80;;;;;;5073286;28;19912;-68
2021/04/27 08:36:26;;;;;;;;;;;486.60;1356.80;;;;;;5052894;28;19912;-68
2021/04/27 08:38:52;;;;;;;;;;;486.50;1382.40;;;;;;5069230;28;19908;-66
2021/04/27 08:41:18;;;;;;;;;;;;;;;;;;5069877;28;20133;-66
2021/04/27 08:43:44;;;;;;;;;;;;;;;;;;5070002;28;20380;-69
2021/04/27 08:46:09;;;;;;;;;;;;;;;;;;5070214;28;20008;-69
2021/04/27 08:48:35;;;;;;;;;;;;;;;;;;5071460;28;19983;-67
2021/04/27 08:51:01;;;;;;;;;;;;;;;;;;5072438;28;19991;-68
2021/04/27 08:53:27;;;;;;;;;;;;;;;;;;5067661;28;20343;-68
2021/04/27 08:55:53;;;;;;;;;;;;;;;;;;5070733;28;20301;-66
2021/04/27 08:58:19;;;;;;;;;;;;;;;;;;5069012;28;20030;-67
2021/04/27 09:00:45;;;;;;;;;;;;;;;;;;5053101;28;19916;-66
2021/04/27 09:03:11;;;;;;;;;;;;;;;;;;5070303;28;19910;-65
2021/04/27 09:05:37;;;;;;;;;;;;;;;;;;5071968;28;19916;-65
2021/04/27 09:08:03;;;;;;;;;;;;;;;;;;5071507;28;19912;-69
2021/04/27 09:10:29;;;;;;;;;;;;;;;;;;5053659;28;19916;-69
2021/04/27 09:12:56;;;;;;;;;;;;;;;;;;5060410;28;20550;-68
2021/04/27 09:15:21;;;;;;;;;;;;;;;;;;5070713;28;19955;-65
2021/04/27 09:17:47;;;;;;;;;;;;;;;;;;5072375;28;19940;-67
2021/04/27 09:20:13;;;;;;;;;;;;;;;;;;5056537;28;20005;-68
2021/04/27 09:22:41;;;;;;;;;;;;;;;;;;5070113;28;19958;-68
2021/04/27 09:25:07;;;;;;;;;;;512.20;1280.00;;;;;;5070744;28;19919;-66
2021/04/27 09:27:51;;;;;;;;;;;512.10;1305.60;;;;;;5072292;28;19908;-68
2021/04/27 09:30:20;;;;;;;;;;;512.10;1305.60;;;;;;5070995;28;19908;-70
2021/04/27 09:32:53;;;;;;;;;;;512.30;1305.60;;;;;;5071115;28;19909;-67
2021/04/27 09:35:31;;;;;;;;;;;512.10;1305.60;;;;;;5057927;28;19911;-67
2021/04/27 09:38:16;;;;;;;;;;;512.10;1331.20;;;;;;5059233;28;20085;-67
2021/04/27 09:40:45;;;;;;;;;;;512.20;1305.60;;;;;;5052217;28;19935;-69
2021/04/27 09:43:10;;;;;;;;;;;;;;;;;;5048291;28;20390;-69
2021/04/27 09:45:36;;;;;;;;;;;;;;;;;;5052503;28;19998;-68
2021/04/27 09:48:02;;;;;;;;;;;;;;;;;;5053021;28;19982;-67
2021/04/27 09:50:28;;;;;;;;;;;;;;;;;;5062994;28;19904;-68
2021/04/27 09:52:54;;;;;;;;;;;512.90;1254.40;;;;;;5072867;28;20025;-67
2021/04/27 09:55:22;;;;;;;;;;;;;;;;;;5073000;28;20309;-68
2021/04/27 09:57:48;;;;;;;;;;;;;;;;;;5072823;28;19966;-67
2021/04/27 10:00:20;;;;;;;;;;;512.30;1331.20;;;;;;5072569;28;19904;-69
2021/04/27 10:02:46;;;;;;;;;;;512.20;1331.20;;;;;;5073140;28;20362;-68
2021/04/27 10:05:12;;;;;;;;;;;512.10;1331.20;;;;;;5072812;28;19916;-68
2021/04/27 10:07:39;;;;;;;;;;;487.20;1356.80;;;;;;5073047;28;19920;-67
2021/04/27 10:10:05;;;;;;;;;;;;;;;;;;5072772;28;19940;-67
2021/04/27 10:12:31;;;;;;;;;;;;;;;;;;5063455;28;20385;-67
2021/04/27 10:14:57;;;;;;;;;;;;;;;;;;5067829;28;19950;-66
2021/04/27 10:17:23;;;;;;;;;;;;;;;;;;5072584;28;19951;-69
2021/04/27 10:19:49;;;;;;;;;;;;;;;;;;5072478;28;19904;-67
2021/04/27 10:22:15;;;;;;;;;;;486.60;1382.40;;;;;;5072738;28;19974;-68
2021/04/27 10:24:41;;;;;;;;;;;461.70;1433.60;;;;;;5072838;28;20024;-68
2021/04/27 10:27:07;;;;;;;;;;;461.70;1433.60;;;;;;5072317;28;20490;-67
2021/04/27 10:29:32;;;;;;;;;;;461.70;1433.60;;;;;;5072514;28;19904;-69
2021/04/27 10:32:18;;;;;;;;;;;461.70;1408.00;;;;;;5072037;28;19943;-67
2021/04/27 10:35:10;;;;;;;;;;;461.70;1433.60;;;;;;5072598;28;19962;-68
2021/04/27 10:37:54;;;;;;;;;;;461.60;1433.60;;;;;;5067437;28;19912;-67
2021/04/27 10:40:38;;;;;;;;;;;461.50;1459.20;;;;;;5071913;28;19911;-68
2021/04/27 10:43:22;;;;;;;;;;;461.50;1459.20;;;;;;5067190;28;19966;-68
2021/04/27 10:45:47;;;;;;;;;;;461.50;1484.80;;;;;;5072183;28;19966;-68
2021/04/27 10:48:39;;;;;;;;;;;461.50;1484.80;;;;;;5048263;28;20329;-68
2021/04/27 10:51:31;;;;;;;;;;;461.40;1484.80;;;;;;5062959;28;19916;-68
2021/04/27 10:54:03;;;;;;;;;;;461.40;1510.40;;;;;;5067001;28;19974;-67
2021/04/27 10:56:34;;;;;;;;;;;461.30;1510.40;;;;;;5075347;28;19912;-67
2021/04/27 10:59:04;;;;;;;;;;;461.40;1484.80;;;;;;5076197;28;20060;-67
2021/04/27 11:01:30;;;;;;;;;;;461.40;1484.80;;;;;;5076189;28;19912;-68
2021/04/27 11:03:58;;;;;;;;;;;461.40;1510.40;;;;;;5075959;28;20294;-68
2021/04/27 11:06:24;;;;;;;;;;;461.40;1510.40;;;;;;5075651;28;19920;-66
2021/04/27 11:08:52;;;;;;;;;;;461.50;1484.80;;;;;;5076050;28;19911;-68
2021/04/27 11:11:30;;;;;;;;;;;461.50;1484.80;;;;;;5076265;28;20025;-69
2021/04/27 11:14:17;;;;;;;;;;;461.60;1484.80;;;;;;5049880;28;19954;-67
2021/04/27 11:16:58;;;;;;;;;;;461.70;1484.80;;;;;;5075809;28;19950;-67
2021/04/27 11:19:24;;;;;;;;;;;486.40;1484.80;;;;;;5075870;28;19904;-69
2021/04/27 11:21:50;;;;;;;;;;;;;;;;;;5075941;28;19916;-66
2021/04/27 11:24:32;;;;;;;;;;;486.80;1459.20;;;;;;5076076;28;19904;-68
2021/04/27 11:26:58;;;;;;;;;;;486.80;1459.20;;;;;;5075744;28;20007;-68
2021/04/27 11:29:24;;;;;;;;;;;;;;;;;;5076108;28;19999;-67
2021/04/27 11:31:52;;;;;;;;;;;;;;;;;;5075282;28;20363;-68
2021/04/27 11:34:18;;;;;;;;;;;487.30;1408.00;;;;;;5064497;28;19909;-68
2021/04/27 11:36:43;;;;;;;;;;;512.00;1382.40;;;;;;5055638;28;20030;-68
2021/04/27 11:39:12;;;;;;;;;;;487.30;1408.00;;;;;;5060386;28;19998;-68
2021/04/27 11:41:53;;;;;;;;;;;487.20;1408.00;;;;;;5055772;28;19916;-69
2021/04/27 11:44:20;;;;;;;;;;;487.10;1433.60;;;;;;5074274;28;19904;-67
2021/04/27 11:46:54;;;;;;;;;;;487.20;1433.60;;;;;;5075372;28;19904;-67
2021/04/27 11:49:20;;;;;;;;;;;487.10;1433.60;;;;;;5061157;28;19959;-69
2021/04/27 11:51:46;;;;;;;;;;;487.10;1408.00;;;;;;5075401;28;19915;-68
2021/04/27 11:54:12;;;;;;;;;;;487.10;1408.00;;;;;;5075197;28;20297;-68
2021/04/27 11:56:45;;;;;;;;;;;487.00;1408.00;;;;;;5060925;28;19950;-68
2021/04/27 11:59:11;;;;;;;;;;;487.10;1408.00;;;;;;5075869;28;20398;-68
2021/04/27 12:01:36;;;;;;;;;;;487.10;1408.00;;;;;;5075037;28;20006;-66
2021/04/27 12:04:03;;;;;;;;;;;487.00;1408.00;;;;;;5075234;28;20041;-67
2021/04/27 12:06:31;;;;;;;;;;;486.80;1433.60;;;;;;5073844;28;19920;-68
2021/04/27 12:09:00;;;;;;;;;;;487.00;1433.60;;;;;;5075058;28;19991;-68
2021/04/27 12:11:29;;;;;;;;;;;487.10;1408.00;;;;;;5074862;28;19912;-67
2021/04/27 12:14:01;;;;;;;;;;;487.10;1408.00;;;;;;5048558;28;19970;-68
2021/04/27 12:16:27;;;;;;;;;;;487.00;1433.60;;;;;;5075517;28;19931;-68
2021/04/27 12:19:02;;;;;;;;;;;487.00;1459.20;;;;;;5074530;28;20258;-69
2021/04/27 12:21:30;;;;;;;;;;;486.80;1459.20;;;;;;5074864;28;20342;-68
2021/04/27 12:23:56;;;;;;;;;;;;;;;;;;5074372;28;19934;-69
2021/04/27 12:26:22;;;;;;;;;;;;;;;;;;5074772;28;20044;-69
2021/04/27 12:28:47;;;;;;;;;;;;;;;;;;5074513;28;20354;-68
2021/04/27 12:31:13;;;;;;;;;;;;;;;;;;5074608;28;19909;-68
2021/04/27 12:33:39;;;;;;;;;;;;;;;;;;5074342;28;19908;-68
2021/04/27 12:36:05;;;;;;;;;;;486.90;1459.20;;;;;;5074425;28;19938;-68
2021/04/27 12:38:35;;;;;;;;;;;486.80;1459.20;;;;;;5074516;28;19981;-68
2021/04/27 12:41:03;;;;;;;;;;;486.70;1433.60;;;;;;5046342;28;20355;-68
2021/04/27 12:43:31;;;;;;;;;;;486.80;1433.60;;;;;;5070011;28;20072;-68
2021/04/27 12:46:00;;;;;;;;;;;486.80;1433.60;;;;;;5074203;28;19908;-68
2021/04/27 12:48:31;;;;;;;;;;;486.90;1459.20;;;;;;5066969;28;19908;-67
2021/04/27 12:51:00;;;;;;;;;;;487.00;1484.80;;;;;;5067940;28;19916;-68
2021/04/27 12:53:35;;;;;;;;;;;486.80;1484.80;;;;;;5046354;28;19911;-68
2021/04/27 12:56:08;;;;;;;;;;;486.70;1484.80;;;;;;5060748;28;19912;-68
2021/04/27 12:58:33;;;;;;;;;;;486.80;1459.20;;;;;;5046930;28;19905;-67
2021/04/27 13:01:01;;;;;;;;;;;486.70;1459.20;;;;;;5073832;28;20016;-68
2021/04/27 13:03:29;;;;;;;;;;;486.80;1459.20;;;;;;5073736;28;20369;-67
2021/04/27 13:05:55;;;;;;;;;;;486.80;1459.20;;;;;;5073822;28;19963;-67
2021/04/27 13:08:24;;;;;;;;;;;486.70;1459.20;;;;;;5073671;28;19908;-68
2021/04/27 13:10:50;;;;;;;;;;;486.70;1484.80;;;;;;5073735;28;19905;-68
2021/04/27 13:13:22;;;;;;;;;;;487.00;1433.60;;;;;;5059467;28;19962;-67
2021/04/27 13:15:58;;;;;;;;;;;487.00;1459.20;;;;;;5073785;28;19911;-68
2021/04/27 13:18:24;;;;;;;;;;;486.80;1484.80;;;;;;5073520;28;19911;-68
2021/04/27 13:20:52;;;;;;;;;;;486.70;1484.80;;;;;;5073242;28;19908;-68
2021/04/27 13:23:19;;;;;;;;;;;486.70;1484.80;;;;;;5073418;28;19958;-67
2021/04/27 13:25:45;;;;;;;;;;;;;;;;;;5073506;28;19994;-68
2021/04/27 13:28:15;;;;;;;;;;;486.60;1561.60;;;;;;5073303;28;19954;-68
2021/04/27 13:30:48;;;;;;;;;;;486.40;1587.20;;;;;;5073360;28;19908;-68
2021/04/27 13:33:14;;;;;;;;;;;;;;;;;;5073304;28;20401;-68
2021/04/27 13:35:40;;;;;;;;;;;;;;;;;;5073453;28;20003;-68
2021/04/27 13:38:06;;;;;;;;;;;;;;;;;;5073168;28;20016;-66
2021/04/27 13:40:32;;;;;;;;;;;;;;;;;;5073025;28;19904;-68
2021/04/27 13:42:58;;;;;;;;;;;;;;;;;;5069165;28;19912;-67
2021/04/27 13:45:29;;;;;;;;;;;;;;;;;;5073205;28;19963;-67
2021/04/27 13:47:55;;;;;;;;;;;461.70;1638.40;;;;;;5070284;28;20373;-67
2021/04/27 13:50:22;;;;;;;;;;;461.50;1664.00;;;;;;5061925;28;19904;-69
2021/04/27 13:52:47;;;;;;;;;;;461.70;1638.40;;;;;;5072985;28;19954;-69
2021/04/27 13:55:13;;;;;;;;;;;461.50;1664.00;;;;;;5054909;28;19943;-69
2021/04/27 13:57:41;;;;;;;;;;;461.60;1664.00;;;;;;5073005;28;19912;-67
2021/04/27 14:00:07;;;;;;;;;;;461.50;1664.00;;;;;;5072734;28;20268;-68
2021/04/27 14:02:33;;;;;;;;;;;;;;;;;;5072654;28;19912;-69
2021/04/27 14:04:59;;;;;;;;;;;461.50;1689.60;;;;;;5072721;28;19915;-69
2021/04/27 14:07:24;;;;;;;;;;;461.50;1920.00;;;;;;5072825;28;20374;-68
2021/04/27 14:09:50;;;;;;;;;;;461.40;1689.60;;;;;;5072516;28;19904;-69